createdAt,value
2023-04-14T00:00:48.986Z,2.10
2023-04-14T00:02:54.168Z,2.63
2023-04-14T00:04:59.559Z,2.90
2023-04-14T00:07:04.837Z,2.47
2023-04-14T00:09:12.553Z,2.55
2023-04-14T00:11:20.529Z,2.30
2023-04-14T00:13:26.115Z,2.50
2023-04-14T00:15:31.037Z,2.65
2023-04-14T00:17:37.141Z,2.53
2023-04-14T00:19:42.220Z,2.50
2023-04-14T00:21:47.253Z,2.85
2023-04-14T00:23:52.508Z,2.83
2023-04-14T00:26:00.146Z,3.10
2023-04-14T00:28:05.909Z,2.85
2023-04-14T00:30:12.220Z,2.33
2023-04-14T00:32:19.404Z,2.25
2023-04-14T00:34:24.557Z,3.45
2023-04-14T00:36:29.546Z,2.67
2023-04-14T00:38:37.770Z,2.53
2023-04-14T00:40:42.660Z,2.30
2023-04-14T00:42:53.586Z,2.28
2023-04-14T00:44:58.881Z,2.22
2023-04-14T00:47:05.454Z,2.15
2023-04-14T00:49:10.768Z,2.22
2023-04-14T00:51:16.335Z,2.10
2023-04-14T00:53:24.610Z,2.90
2023-04-14T00:55:30.016Z,2.22
2023-04-14T00:57:35.844Z,2.50
2023-04-14T00:59:43.979Z,2.28
2023-04-14T01:01:49.101Z,2.53
2023-04-14T01:03:55.519Z,2.75
2023-04-14T01:06:00.758Z,2.67
2023-04-14T01:08:06.813Z,2.72
2023-04-14T01:10:12.863Z,3.03
2023-04-14T01:12:27.923Z,2.78
2023-04-14T01:14:41.909Z,2.28
2023-04-14T01:16:50.667Z,3.03
2023-04-14T01:19:02.166Z,2.85
2023-04-14T01:21:14.294Z,3.15
2023-04-14T01:23:26.662Z,2.75
2023-04-14T01:26:05.956Z,2.53
2023-04-14T01:28:19.785Z,2.70
2023-04-14T01:31:01.709Z,2.63
2023-04-14T01:33:13.891Z,2.55
2023-04-14T01:35:26.222Z,2.95
2023-04-14T01:37:34.464Z,3.08
2023-04-14T01:39:43.808Z,2.72
2023-04-14T01:41:56.188Z,2.50
2023-04-14T01:44:04.660Z,2.50
2023-04-14T01:46:14.882Z,3.45
2023-04-14T01:48:23.015Z,2.35
2023-04-14T01:50:31.682Z,2.78
2023-04-14T01:52:39.044Z,2.33
2023-04-14T01:54:49.384Z,2.40
2023-04-14T01:56:55.851Z,3.05
2023-04-14T01:59:01.788Z,2.50
2023-04-14T02:01:14.641Z,2.80
2023-04-14T02:03:24.654Z,2.67
2023-04-14T02:05:33.898Z,2.53
2023-04-14T02:07:40.020Z,3.28
2023-04-14T02:09:47.342Z,2.33
2023-04-14T02:11:54.825Z,2.58
2023-04-14T02:14:01.186Z,3.15
2023-04-14T02:16:09.326Z,3.08
2023-04-14T02:18:14.744Z,2.53
2023-04-14T02:20:23.039Z,2.92
2023-04-14T02:22:31.022Z,2.65
2023-04-14T02:24:36.567Z,2.78
2023-04-14T02:26:47.515Z,3.15
2023-04-14T02:28:56.978Z,2.85
2023-04-14T02:31:04.397Z,2.60
2023-04-14T02:33:12.821Z,3.33
2023-04-14T02:35:25.569Z,3.65
2023-04-14T02:37:40.263Z,3.38
2023-04-14T02:39:48.392Z,3.33
2023-04-14T02:42:01.552Z,3.13
2023-04-14T02:46:19.635Z,2.72
2023-04-14T02:48:31.505Z,3.40
2023-04-14T02:50:38.915Z,3.20
2023-04-14T02:52:51.902Z,3.38
2023-04-14T02:54:58.171Z,3.00
2023-04-14T02:57:04.206Z,3.00
2023-04-14T02:59:10.349Z,3.33
2023-04-14T03:01:16.318Z,3.25
2023-04-14T03:03:24.668Z,2.67
2023-04-14T03:05:30.955Z,2.60
2023-04-14T03:07:36.672Z,2.47
2023-04-14T03:09:45.911Z,2.90
2023-04-14T03:11:52.583Z,2.92
2023-04-14T03:14:01.100Z,3.28
2023-04-14T03:16:08.623Z,2.75
2023-04-14T03:18:15.131Z,3.35
2023-04-14T03:20:23.795Z,3.60
2023-04-14T03:22:29.806Z,3.30
2023-04-14T03:24:40.360Z,3.47
2023-04-14T03:26:50.412Z,3.22
2023-04-14T03:28:57.892Z,3.53
2023-04-14T03:31:06.828Z,3.65
2023-04-14T03:33:14.914Z,5.40
2023-04-14T03:35:22.747Z,3.50
2023-04-14T03:37:30.782Z,4.10
2023-04-14T03:39:39.020Z,3.78
2023-04-14T03:41:52.191Z,3.97
2023-04-14T03:46:05.561Z,4.88
2023-04-14T03:48:14.837Z,3.97
2023-04-14T03:50:25.083Z,4.80
2023-04-14T03:52:32.700Z,4.05
2023-04-14T03:54:40.872Z,4.07
2023-04-14T03:56:49.340Z,3.75
2023-04-14T03:58:56.716Z,3.78
2023-04-14T04:01:02.804Z,4.05
2023-04-14T04:03:09.093Z,4.22
2023-04-14T04:05:15.288Z,3.92
2023-04-14T04:07:22.644Z,4.03
2023-04-14T04:09:28.581Z,4.38
2023-04-14T04:11:36.892Z,4.22
2023-04-14T04:13:45.864Z,4.28
2023-04-14T04:15:53.945Z,4.13
2023-04-14T04:18:02.964Z,4.25
2023-04-14T04:20:11.803Z,4.03
2023-04-14T04:22:20.668Z,4.95
2023-04-14T04:24:27.829Z,5.18
2023-04-14T04:26:35.138Z,5.90
2023-04-14T04:28:45.740Z,4.53
2023-04-14T04:30:55.823Z,5.05
2023-04-14T04:33:01.206Z,4.47
2023-04-14T04:35:08.020Z,4.50
2023-04-14T04:37:13.719Z,5.10
2023-04-14T04:39:20.745Z,5.97
2023-04-14T04:41:26.558Z,5.50
2023-04-14T04:43:31.690Z,6.22
2023-04-14T04:45:54.966Z,5.00
2023-04-14T04:47:59.827Z,5.15
2023-04-14T04:50:05.009Z,6.13
2023-04-14T04:52:09.956Z,6.85
2023-04-14T04:54:15.886Z,5.63
2023-04-14T04:56:23.990Z,5.50
2023-04-14T04:58:30.969Z,5.50
2023-04-14T05:00:35.910Z,6.32
2023-04-14T05:02:46.913Z,7.15
2023-04-14T05:04:52.103Z,6.30
2023-04-14T05:06:57.722Z,6.65
2023-04-14T05:09:02.762Z,6.70
2023-04-14T05:11:08.801Z,8.15
2023-04-14T05:13:14.344Z,6.72
2023-04-14T05:15:19.586Z,7.13
2023-04-14T05:17:24.698Z,6.90
2023-04-14T05:19:32.164Z,6.85
2023-04-14T05:21:37.035Z,6.93
2023-04-14T05:23:44.268Z,6.82
2023-04-14T05:25:49.190Z,7.97
2023-04-14T05:27:54.151Z,8.25
2023-04-14T05:29:59.018Z,7.47
2023-04-14T05:32:03.932Z,8.50
2023-04-14T05:34:08.782Z,7.13
2023-04-14T05:36:21.077Z,8.40
2023-04-14T05:38:27.455Z,8.10
2023-04-14T05:40:32.459Z,8.60
2023-04-14T05:42:40.474Z,7.25
2023-04-14T05:44:49.194Z,9.05
2023-04-14T05:46:54.288Z,8.55
2023-04-14T05:49:01.011Z,8.90
2023-04-14T05:51:06.553Z,8.85
2023-04-14T05:53:15.776Z,7.95
2023-04-14T05:55:24.121Z,9.60
2023-04-14T05:57:31.359Z,8.75
2023-04-14T05:59:36.593Z,7.93
2023-04-14T06:01:43.920Z,7.90
2023-04-14T06:03:49.279Z,9.68
2023-04-14T06:05:54.482Z,8.38
2023-04-14T06:07:59.396Z,7.72
2023-04-14T06:10:07.540Z,7.70
2023-04-14T06:12:13.065Z,8.23
2023-04-14T06:14:20.220Z,7.70
2023-04-14T06:16:25.330Z,8.00
2023-04-14T06:18:30.358Z,7.50
2023-04-14T06:20:35.330Z,7.85
2023-04-14T06:22:41.425Z,8.15
2023-04-14T06:24:49.364Z,8.43
2023-04-14T06:26:58.724Z,7.68
2023-04-14T06:29:07.793Z,8.13
2023-04-14T06:31:14.697Z,8.35
2023-04-14T06:33:19.849Z,8.02
2023-04-14T06:35:33.012Z,8.60
2023-04-14T06:37:38.711Z,6.40
2023-04-14T06:39:44.564Z,8.32
2023-04-14T06:41:49.492Z,7.85
2023-04-14T06:43:57.145Z,7.13
2023-04-14T06:46:02.199Z,6.40
2023-04-14T06:48:08.220Z,8.50
2023-04-14T06:50:15.069Z,7.05
2023-04-14T06:52:19.852Z,6.40
2023-04-14T06:54:24.870Z,7.28
2023-04-14T06:56:30.129Z,6.70
2023-04-14T06:58:35.310Z,6.85
2023-04-14T07:00:43.052Z,6.40
2023-04-14T07:02:50.415Z,5.78
2023-04-14T07:04:55.597Z,6.18
2023-04-14T07:07:03.154Z,6.60
2023-04-14T07:09:08.328Z,5.35
2023-04-14T07:11:15.198Z,5.63
2023-04-14T07:13:20.251Z,5.70
2023-04-14T07:15:25.341Z,5.60
2023-04-14T07:17:32.825Z,5.90
2023-04-14T07:19:37.965Z,5.65
2023-04-14T07:21:43.349Z,4.78
2023-04-14T07:23:50.106Z,5.25
2023-04-14T07:25:56.315Z,4.57
2023-04-14T07:28:03.545Z,4.70
2023-04-14T07:30:10.346Z,4.75
2023-04-14T07:32:15.571Z,3.88
2023-04-14T07:34:23.205Z,4.15
2023-04-14T07:36:29.064Z,4.03
2023-04-14T07:38:34.924Z,4.03
2023-04-14T07:40:40.260Z,4.40
2023-04-14T07:42:45.646Z,3.65
2023-04-14T07:44:53.975Z,3.92
2023-04-14T07:46:59.135Z,3.47
2023-04-14T07:49:06.253Z,3.90
2023-04-14T07:51:17.857Z,4.15
2023-04-14T07:53:23.028Z,3.42
2023-04-14T07:55:27.931Z,3.95
2023-04-14T07:57:32.949Z,3.50
2023-04-14T07:59:38.568Z,3.65
2023-04-14T08:01:46.210Z,3.45
2023-04-14T08:03:53.424Z,3.80
2023-04-14T08:06:19.655Z,3.35
2023-04-14T08:08:27.710Z,3.58
2023-04-14T08:10:32.591Z,3.45
2023-04-14T08:12:37.969Z,3.25
2023-04-14T08:14:43.058Z,3.30
2023-04-14T08:16:51.593Z,2.90
2023-04-14T08:18:58.046Z,2.65
2023-04-14T08:21:05.794Z,2.70
2023-04-14T08:23:13.540Z,2.70
2023-04-14T08:25:23.103Z,2.60
2023-04-14T08:27:27.963Z,3.20
2023-04-14T08:29:33.023Z,2.70
2023-04-14T08:31:38.099Z,2.80
2023-04-14T08:33:43.180Z,3.63
2023-04-14T08:35:59.484Z,4.60
2023-04-14T08:38:04.940Z,4.15
2023-04-14T08:40:13.501Z,4.25
2023-04-14T08:42:29.177Z,3.15
2023-04-14T08:44:41.682Z,2.78
2023-04-14T08:47:11.823Z,3.47
2023-04-14T08:49:33.600Z,7.22
2023-04-14T08:51:44.301Z,2.78
2023-04-14T08:53:59.955Z,2.30
2023-04-14T08:56:13.225Z,2.17
2023-04-14T08:58:39.069Z,2.03
2023-04-14T09:00:52.280Z,2.67
2023-04-14T09:03:05.256Z,3.60
2023-04-14T09:05:13.376Z,2.40
2023-04-14T09:07:19.559Z,2.30
2023-04-14T09:09:24.727Z,2.50
2023-04-14T09:11:31.429Z,2.78
2023-04-14T09:13:40.979Z,2.28
2023-04-14T09:15:47.459Z,2.33
2023-04-14T09:17:54.602Z,2.30
2023-04-14T09:20:35.590Z,2.55
2023-04-14T09:22:24.790Z,2.35
2023-04-14T09:24:34.337Z,3.17
2023-04-14T09:26:39.446Z,2.40
2023-04-14T09:28:49.581Z,2.13
2023-04-14T09:30:55.237Z,2.72
2023-04-14T09:33:01.259Z,2.28
2023-04-14T09:35:08.054Z,1.70
2023-04-14T09:37:13.128Z,2.17
2023-04-14T09:39:24.546Z,2.03
2023-04-14T09:41:29.635Z,2.20
2023-04-14T09:43:34.723Z,2.20
2023-04-14T09:45:47.663Z,2.08
2023-04-14T09:48:11.047Z,2.15
2023-04-14T09:52:23.275Z,2.10
2023-04-14T09:54:31.136Z,2.80
2023-04-14T09:56:38.709Z,3.08
2023-04-14T09:58:45.853Z,2.55
2023-04-14T10:00:54.422Z,3.00
2023-04-14T10:03:01.663Z,2.90
2023-04-14T10:05:08.264Z,3.55
2023-04-14T10:07:13.204Z,2.95
2023-04-14T10:09:25.301Z,2.85
2023-04-14T10:11:33.069Z,3.10
2023-04-14T10:13:38.024Z,3.17
2023-04-14T10:15:43.458Z,2.65
2023-04-14T10:17:53.682Z,3.13
2023-04-14T10:19:59.360Z,3.15
2023-04-14T10:22:04.981Z,2.53
2023-04-14T10:24:09.836Z,2.88
2023-04-14T10:26:16.073Z,2.97
2023-04-14T10:28:28.307Z,2.90
2023-04-14T10:30:33.767Z,2.70
2023-04-14T10:32:40.701Z,2.75
2023-04-14T10:35:02.587Z,2.47
2023-04-14T10:37:25.768Z,2.10
2023-04-14T10:39:30.746Z,2.08
2023-04-14T10:41:49.908Z,2.00
2023-04-14T10:43:55.321Z,2.10
2023-04-14T10:46:01.057Z,2.47
2023-04-14T10:48:06.198Z,2.38
2023-04-14T10:50:21.485Z,2.10
2023-04-14T10:52:35.417Z,1.90
2023-04-14T10:54:57.438Z,2.13
2023-04-14T10:57:14.908Z,2.30
2023-04-14T10:59:20.034Z,2.40
2023-04-14T11:01:26.492Z,2.03
2023-04-14T11:03:35.350Z,2.10
2023-04-14T11:05:46.150Z,1.90
2023-04-14T11:08:03.222Z,2.45
2023-04-14T11:10:31.022Z,2.40
2023-04-14T11:12:46.209Z,2.92
2023-04-14T11:14:58.520Z,2.05
2023-04-14T11:17:05.025Z,2.22
2023-04-14T11:19:21.459Z,2.30
2023-04-14T11:21:30.185Z,2.17
2023-04-14T11:23:35.931Z,2.20
2023-04-14T11:25:42.915Z,2.33
2023-04-14T11:27:49.288Z,2.63
2023-04-14T11:29:57.376Z,1.90
2023-04-14T11:32:06.763Z,2.05
2023-04-14T11:34:11.896Z,2.55
2023-04-14T11:36:20.869Z,2.10
2023-04-14T11:38:29.420Z,2.50
2023-04-14T11:40:36.898Z,2.47
2023-04-14T11:42:42.056Z,2.08
2023-04-14T11:44:50.907Z,2.30
2023-04-14T11:46:56.900Z,2.40
2023-04-14T11:49:01.881Z,2.00
2023-04-14T11:51:07.419Z,2.53
2023-04-14T11:53:14.610Z,2.00
2023-04-14T11:55:23.546Z,2.00
2023-04-14T11:57:31.543Z,2.03
2023-04-14T11:59:44.764Z,2.03
2023-04-14T12:01:54.443Z,2.10
2023-04-14T12:04:00.165Z,1.75
2023-04-14T12:06:06.152Z,1.77
2023-04-14T12:08:13.390Z,1.98
2023-04-14T12:10:23.881Z,2.63
2023-04-14T12:12:29.564Z,1.73
2023-04-14T12:14:36.589Z,1.83
2023-04-14T12:16:41.780Z,1.90
2023-04-14T12:18:49.225Z,1.52
2023-04-14T12:20:57.660Z,1.90
2023-04-14T12:23:06.505Z,2.03
2023-04-14T12:25:14.738Z,1.98
2023-04-14T12:27:27.035Z,1.90
2023-04-14T12:29:32.009Z,2.10
2023-04-14T12:31:36.875Z,2.10
2023-04-14T12:33:41.843Z,1.80
2023-04-14T12:35:50.885Z,1.90
2023-04-14T12:37:58.634Z,1.77
2023-04-14T12:40:07.150Z,1.80
2023-04-14T12:42:12.055Z,1.60
2023-04-14T12:44:24.658Z,1.42
2023-04-14T12:46:31.429Z,1.80
2023-04-14T12:48:45.158Z,2.00
2023-04-14T12:50:53.516Z,1.95
2023-04-14T12:53:00.112Z,1.45
2023-04-14T12:55:05.011Z,1.60
2023-04-14T12:57:10.305Z,1.70
2023-04-14T12:59:15.410Z,1.48
2023-04-14T13:01:24.194Z,1.70
2023-04-14T13:03:45.235Z,1.85
2023-04-14T13:05:50.435Z,2.00
2023-04-14T13:07:56.542Z,1.63
2023-04-14T13:10:01.535Z,1.50
2023-04-14T13:12:07.149Z,1.73
2023-04-14T13:14:12.296Z,1.83
2023-04-14T13:16:21.535Z,1.92
2023-04-14T13:18:30.673Z,1.60
2023-04-14T13:20:36.023Z,2.33
2023-04-14T13:22:42.215Z,1.60
2023-04-14T13:24:50.276Z,1.65
2023-04-14T13:26:55.243Z,1.70
2023-04-14T13:29:02.991Z,2.05
2023-04-14T13:31:08.673Z,1.60
2023-04-14T13:33:14.621Z,1.75
2023-04-14T13:35:24.533Z,2.00
2023-04-14T13:37:29.416Z,1.77
2023-04-14T13:39:34.473Z,1.92
2023-04-14T13:41:39.550Z,1.58
2023-04-14T13:43:44.627Z,1.70
2023-04-14T13:45:49.736Z,1.95
2023-04-14T13:47:54.905Z,1.92
2023-04-14T13:49:59.854Z,2.13
2023-04-14T13:52:07.964Z,2.05
2023-04-14T13:54:13.088Z,1.70
2023-04-14T13:56:20.055Z,1.90
2023-04-14T13:58:27.107Z,1.90
2023-04-14T14:00:32.125Z,2.00
2023-04-14T14:02:39.722Z,1.98
2023-04-14T14:04:45.024Z,2.05
2023-04-14T14:06:50.244Z,1.75
2023-04-14T14:09:06.276Z,1.70
2023-04-14T14:11:13.070Z,1.70
2023-04-14T14:13:21.994Z,1.70
2023-04-14T14:15:27.182Z,1.83
2023-04-14T14:17:32.610Z,2.00
2023-04-14T14:19:37.812Z,1.70
2023-04-14T14:21:44.373Z,1.80
2023-04-14T14:23:49.429Z,1.60
2023-04-14T14:25:57.718Z,2.05
2023-04-14T14:28:02.743Z,2.13
2023-04-14T14:30:09.044Z,1.92
2023-04-14T14:32:15.793Z,2.05
2023-04-14T14:34:23.663Z,2.88
2023-04-14T14:36:32.688Z,2.03
2023-04-14T14:38:38.772Z,2.00
2023-04-14T14:40:44.285Z,2.15
2023-04-14T14:42:52.329Z,2.22
2023-04-14T14:44:57.441Z,1.80
2023-04-14T14:47:02.902Z,2.20
2023-04-14T14:49:08.336Z,2.25
2023-04-14T14:51:13.263Z,1.90
2023-04-14T14:53:19.888Z,1.65
2023-04-14T14:55:25.089Z,1.88
2023-04-14T14:57:39.637Z,1.75
2023-04-14T14:59:49.089Z,2.20
2023-04-14T15:01:53.962Z,2.10
2023-04-14T15:04:00.233Z,1.98
2023-04-14T15:06:05.746Z,1.98
2023-04-14T15:08:10.602Z,1.50
2023-04-14T15:10:15.491Z,1.92
2023-04-14T15:12:20.618Z,1.70
2023-04-14T15:14:26.213Z,2.60
2023-04-14T15:16:33.939Z,1.63
2023-04-14T15:18:39.039Z,1.80
2023-04-14T15:20:44.662Z,1.42
2023-04-14T15:22:49.583Z,1.90
2023-04-14T15:24:57.767Z,2.10
2023-04-14T15:27:02.874Z,1.67
2023-04-14T15:29:11.303Z,1.70
2023-04-14T15:31:18.223Z,2.45
2023-04-14T15:33:25.903Z,1.95
2023-04-14T15:35:30.870Z,1.30
2023-04-14T15:37:35.893Z,1.60
2023-04-14T15:39:40.909Z,1.60
2023-04-14T15:41:47.728Z,1.60
2023-04-14T15:43:53.206Z,1.50
2023-04-14T15:45:58.290Z,2.00
2023-04-14T15:48:03.436Z,1.83
2023-04-14T15:50:13.042Z,1.75
2023-04-14T15:52:24.494Z,2.08
2023-04-14T15:54:29.341Z,1.88
2023-04-14T15:56:44.614Z,2.00
2023-04-14T15:58:53.016Z,1.80
2023-04-14T16:00:58.828Z,2.30
2023-04-14T16:03:05.002Z,1.98
2023-04-14T16:05:16.394Z,2.03
2023-04-14T16:07:28.277Z,2.03
2023-04-14T16:09:33.505Z,2.20
2023-04-14T16:11:41.251Z,2.17
2023-04-14T16:13:49.284Z,1.73
2023-04-14T16:15:58.957Z,2.00
2023-04-14T16:18:07.716Z,2.05
2023-04-14T16:20:20.476Z,2.08
2023-04-14T16:22:27.158Z,2.00
2023-04-14T16:24:33.917Z,2.00
2023-04-14T16:26:40.199Z,2.00
2023-04-14T16:28:45.291Z,2.03
2023-04-14T16:30:54.083Z,2.00
2023-04-14T16:32:59.104Z,2.20
2023-04-14T16:35:09.961Z,2.20
2023-04-14T16:37:22.085Z,2.10
2023-04-14T16:39:32.418Z,2.60
2023-04-14T16:41:40.225Z,2.20
2023-04-14T16:43:45.112Z,2.30
2023-04-14T16:45:49.947Z,2.15
2023-04-14T16:47:55.134Z,1.90
2023-04-14T16:50:00.210Z,1.85
2023-04-14T16:52:05.349Z,1.90
2023-04-14T16:54:13.002Z,2.25
2023-04-14T16:56:22.923Z,2.00
2023-04-14T16:58:28.361Z,1.95
2023-04-14T17:00:33.617Z,2.17
2023-04-14T17:02:39.117Z,1.98
2023-04-14T17:04:49.056Z,2.10
2023-04-14T17:06:54.752Z,2.10
2023-04-14T17:09:00.826Z,2.00
2023-04-14T17:11:08.669Z,2.00
2023-04-14T17:13:13.743Z,2.78
2023-04-14T17:15:20.509Z,2.30
2023-04-14T17:17:30.212Z,2.00
2023-04-14T17:19:35.184Z,1.83
2023-04-14T17:21:40.453Z,2.15
2023-04-14T17:23:45.623Z,2.55
2023-04-14T17:25:55.508Z,1.90
2023-04-14T17:28:03.116Z,2.00
2023-04-14T17:30:12.197Z,1.77
2023-04-14T17:32:20.815Z,1.80
2023-04-14T17:34:29.507Z,2.10
2023-04-14T17:36:38.307Z,2.28
2023-04-14T17:38:51.053Z,2.40
2023-04-14T17:40:56.468Z,2.00
2023-04-14T17:43:04.896Z,3.63
2023-04-14T17:45:22.977Z,2.22
2023-04-14T17:47:28.114Z,2.42
2023-04-14T17:49:34.046Z,2.50
2023-04-14T17:51:39.251Z,2.80
2023-04-14T17:53:44.995Z,2.10
2023-04-14T17:55:53.588Z,2.22
2023-04-14T17:58:41.346Z,2.33
2023-04-14T18:00:46.411Z,2.15
2023-04-14T18:02:54.877Z,2.25
2023-04-14T18:05:03.026Z,2.25
2023-04-14T18:07:08.740Z,2.50
2023-04-14T18:09:15.020Z,2.85
2023-04-14T18:11:20.853Z,2.50
2023-04-14T18:13:31.821Z,2.15
2023-04-14T18:15:37.164Z,2.55
2023-04-14T18:17:45.407Z,2.30
2023-04-14T18:19:51.487Z,1.90
2023-04-14T18:21:58.863Z,2.08
2023-04-14T18:28:23.971Z,1.80
2023-04-14T18:30:35.128Z,2.28
2023-04-14T18:32:40.481Z,2.40
2023-04-14T18:34:51.313Z,2.38
2023-04-14T18:36:56.552Z,2.20
2023-04-14T18:39:02.760Z,2.63
2023-04-14T18:41:08.437Z,2.40
2023-04-14T18:43:13.279Z,2.80
2023-04-14T18:45:21.278Z,2.58
2023-04-14T18:47:29.182Z,2.22
2023-04-14T18:49:34.452Z,2.70
2023-04-14T18:51:39.571Z,2.45
2023-04-14T18:53:46.573Z,2.88
2023-04-14T18:55:53.574Z,2.67
2023-04-14T18:58:02.280Z,2.97
2023-04-14T19:00:09.233Z,2.85
2023-04-14T19:02:14.560Z,3.00
2023-04-14T19:04:23.463Z,3.25
2023-04-14T19:06:31.341Z,2.78
2023-04-14T19:08:38.126Z,2.70
2023-04-14T19:10:43.629Z,2.70
2023-04-14T19:12:49.361Z,3.55
2023-04-14T19:14:54.428Z,3.08
2023-04-14T19:16:59.484Z,2.90
2023-04-14T19:19:04.581Z,3.63
2023-04-14T19:21:12.628Z,3.80
2023-04-14T19:23:20.056Z,3.58
2023-04-14T19:25:28.149Z,3.65
2023-04-14T19:27:36.481Z,4.00
2023-04-14T19:29:41.598Z,4.60
2023-04-14T19:31:49.268Z,5.00
2023-04-14T19:33:54.249Z,3.42
2023-04-14T19:35:59.124Z,3.58
2023-04-14T19:38:09.463Z,3.65
2023-04-14T19:40:15.323Z,3.38
2023-04-14T19:42:23.140Z,3.38
2023-04-14T19:44:28.110Z,3.30
2023-04-14T19:46:35.803Z,3.50
2023-04-14T19:48:41.169Z,3.13
2023-04-14T19:50:50.759Z,2.83
2023-04-14T19:52:56.003Z,3.08
2023-04-14T19:55:03.497Z,3.65
2023-04-14T19:57:08.630Z,4.00
2023-04-14T19:59:13.904Z,4.20
2023-04-14T20:01:20.939Z,4.47
2023-04-14T20:03:26.435Z,4.03
2023-04-14T20:05:31.539Z,4.55
2023-04-14T20:07:36.619Z,4.45
2023-04-14T20:09:45.169Z,4.55
2023-04-14T20:11:53.783Z,4.55
2023-04-14T20:13:58.837Z,4.10
2023-04-14T20:16:04.584Z,3.75
2023-04-14T20:18:10.627Z,3.63
2023-04-14T20:20:24.621Z,3.42
2023-04-14T20:22:29.459Z,3.78
2023-04-14T20:24:34.318Z,3.08
2023-04-14T20:26:42.856Z,3.25
2023-04-14T20:28:51.395Z,3.35
2023-04-14T20:30:57.545Z,3.47
2023-04-14T20:33:04.278Z,3.53
2023-04-14T20:35:09.846Z,3.60
2023-04-14T20:37:14.959Z,3.42
2023-04-14T20:39:20.247Z,3.60
2023-04-14T20:41:25.358Z,4.20
2023-04-14T20:43:34.459Z,3.55
2023-04-14T20:45:42.156Z,3.97
2023-04-14T20:47:47.402Z,3.60
2023-04-14T20:49:53.202Z,3.55
2023-04-14T20:52:01.999Z,3.28
2023-04-14T20:54:07.235Z,4.97
2023-04-14T20:56:12.202Z,4.93
2023-04-14T20:58:19.435Z,4.60
2023-04-14T21:00:24.762Z,3.88
2023-04-14T21:02:32.714Z,3.75
2023-04-14T21:04:38.223Z,3.75
2023-04-14T21:06:43.198Z,3.75
2023-04-14T21:08:51.783Z,4.10
2023-04-14T21:11:16.256Z,4.10
2023-04-14T21:15:39.803Z,4.45
2023-04-14T21:15:56.898Z,3.92
2023-04-14T21:18:04.706Z,4.57
2023-04-14T21:20:11.100Z,4.00
2023-04-14T21:22:16.111Z,4.53
2023-04-14T21:24:23.210Z,4.00
2023-04-14T21:26:28.881Z,4.63
2023-04-14T21:28:35.718Z,4.38
2023-04-14T21:30:40.904Z,3.65
2023-04-14T21:32:45.917Z,5.10
2023-04-14T21:34:53.458Z,4.35
2023-04-14T21:36:59.641Z,3.90
2023-04-14T21:39:04.953Z,5.20
2023-04-14T21:41:11.056Z,4.72
2023-04-14T21:43:15.942Z,4.60
2023-04-14T21:45:23.605Z,4.97
2023-04-14T21:47:29.112Z,4.97
2023-04-14T21:49:34.087Z,5.20
2023-04-14T21:51:41.961Z,5.07
2023-04-14T21:53:48.896Z,4.43
2023-04-14T21:56:09.185Z,4.18
2023-04-14T21:58:15.688Z,4.15
2023-04-14T22:00:20.703Z,4.43
2023-04-14T22:02:27.562Z,4.90
2023-04-14T22:04:36.555Z,5.00
2023-04-14T22:06:46.050Z,4.90
2023-04-14T22:08:53.665Z,4.88
2023-04-14T22:10:58.722Z,5.00
2023-04-14T22:13:06.583Z,4.82
2023-04-14T22:15:12.545Z,4.95
2023-04-14T22:17:20.027Z,5.10
2023-04-14T22:19:25.289Z,5.53
2023-04-14T22:21:30.477Z,4.63
2023-04-14T22:23:38.813Z,5.22
2023-04-14T22:25:44.215Z,5.35
2023-04-14T22:27:49.494Z,5.10
2023-04-14T22:29:54.525Z,5.20
2023-04-14T22:31:59.614Z,5.07
2023-04-14T22:34:04.547Z,5.68
2023-04-14T22:36:10.201Z,5.28
2023-04-14T22:38:15.778Z,5.43
2023-04-14T22:40:23.544Z,5.47
2023-04-14T22:42:30.553Z,6.43
2023-04-14T22:44:35.780Z,6.20
2023-04-14T22:46:41.023Z,5.63
2023-04-14T22:48:46.959Z,6.40
2023-04-14T22:50:52.596Z,5.55
2023-04-14T22:52:58.351Z,5.53
2023-04-14T22:55:03.283Z,5.85
2023-04-14T22:57:11.492Z,6.18
2023-04-14T22:59:21.362Z,5.78
2023-04-14T23:01:27.012Z,6.72
2023-04-14T23:03:34.679Z,6.55
2023-04-14T23:05:40.284Z,6.75
2023-04-14T23:07:45.615Z,6.35
2023-04-14T23:09:53.575Z,6.18
2023-04-14T23:11:58.536Z,6.47
2023-04-14T23:14:06.204Z,6.60
2023-04-14T23:16:11.473Z,6.35
2023-04-14T23:18:16.756Z,6.50
2023-04-14T23:20:25.058Z,6.22
2023-04-14T23:22:30.763Z,7.00
2023-04-14T23:24:37.614Z,6.93
2023-04-14T23:26:42.686Z,6.88
2023-04-14T23:28:48.039Z,6.40
2023-04-14T23:30:56.143Z,6.03
2023-04-14T23:33:02.079Z,6.45
2023-04-14T23:35:07.613Z,6.47
2023-04-14T23:37:12.750Z,6.38
2023-04-14T23:39:17.961Z,6.78
2023-04-14T23:41:24.825Z,7.35
2023-04-14T23:43:30.420Z,6.22
2023-04-14T23:45:40.108Z,6.93
2023-04-14T23:47:47.753Z,8.25
2023-04-14T23:49:53.330Z,6.97
2023-04-14T23:51:58.379Z,6.90
2023-04-14T23:54:04.048Z,6.72
2023-04-14T23:56:10.332Z,6.78
2023-04-14T23:58:26.004Z,6.88
